createdAt,value
2023-03-21T00:00:35.796Z,12.40
2023-03-21T00:03:02.515Z,13.93
2023-03-21T00:05:29.294Z,17.42
2023-03-21T00:07:55.808Z,17.95
2023-03-21T00:10:37.161Z,17.27
2023-03-21T00:13:06.195Z,14.15
2023-03-21T00:15:42.401Z,15.48
2023-03-21T00:18:11.276Z,13.77
2023-03-21T00:20:37.781Z,19.38
2023-03-21T00:23:04.555Z,14.32
2023-03-21T00:25:32.984Z,13.35
2023-03-21T00:28:08.090Z,15.98
2023-03-21T00:30:35.452Z,20.88
2023-03-21T00:33:11.965Z,20.20
2023-03-21T00:36:02.491Z,16.73
2023-03-21T00:38:34.155Z,16.08
2023-03-21T00:41:04.801Z,15.65
2023-03-21T00:46:01.302Z,13.88
2023-03-21T00:48:28.072Z,18.42
2023-03-21T00:50:57.116Z,22.00
2023-03-21T00:53:23.876Z,18.08
2023-03-21T00:55:50.452Z,18.35
2023-03-21T00:58:17.928Z,15.75
2023-03-21T01:00:46.960Z,15.55
2023-03-21T01:03:24.490Z,12.45
2023-03-21T01:06:05.401Z,16.20
2023-03-21T01:08:44.931Z,13.70
2023-03-21T01:11:19.680Z,15.23
2023-03-21T01:13:53.796Z,15.90
2023-03-21T01:16:25.370Z,23.27
2023-03-21T01:18:52.705Z,14.65
2023-03-21T01:21:20.351Z,20.83
2023-03-21T01:23:46.873Z,18.55
2023-03-21T01:26:14.697Z,13.68
2023-03-21T01:28:43.036Z,15.45
2023-03-21T01:31:12.990Z,14.57
2023-03-21T01:33:40.362Z,14.48
2023-03-21T01:36:13.150Z,13.82
2023-03-21T01:38:41.846Z,17.83
2023-03-21T01:41:33.613Z,15.52
2023-03-21T01:44:17.842Z,13.43
2023-03-21T01:47:09.710Z,15.68
2023-03-21T01:49:49.480Z,16.45
2023-03-21T01:52:37.103Z,18.95
2023-03-21T01:55:13.115Z,15.35
2023-03-21T01:58:05.525Z,14.07
2023-03-21T02:00:50.523Z,13.40
2023-03-21T02:03:35.696Z,17.17
2023-03-21T02:06:32.854Z,18.65
2023-03-21T02:09:11.852Z,17.58
2023-03-21T02:11:39.385Z,18.85
2023-03-21T02:14:07.619Z,13.23
2023-03-21T02:17:13.654Z,14.38
2023-03-21T02:20:15.718Z,13.35
2023-03-21T02:23:08.438Z,15.48
2023-03-21T02:26:41.140Z,11.55
2023-03-21T02:29:44.790Z,12.85
2023-03-21T02:32:38.050Z,17.08
2023-03-21T02:35:37.132Z,12.82
2023-03-21T02:38:18.119Z,16.83
2023-03-21T02:41:10.086Z,12.82
2023-03-21T02:43:49.013Z,12.30
2023-03-21T02:46:33.265Z,16.05
2023-03-21T02:49:17.664Z,17.77
2023-03-21T02:51:46.223Z,15.00
2023-03-21T02:54:32.299Z,17.58
2023-03-21T02:57:04.339Z,13.77
2023-03-21T02:59:34.013Z,16.35
2023-03-21T03:02:03.632Z,17.40
2023-03-21T03:04:31.149Z,17.20
2023-03-21T03:07:02.220Z,17.27
2023-03-21T03:09:52.227Z,17.40
2023-03-21T03:12:38.620Z,16.27
2023-03-21T03:15:28.212Z,17.27
2023-03-21T03:18:30.707Z,18.33
2023-03-21T03:21:11.938Z,15.15
2023-03-21T03:23:41.872Z,15.55
2023-03-21T03:26:16.172Z,17.13
2023-03-21T03:28:48.782Z,16.95
2023-03-21T03:31:25.794Z,17.80
2023-03-21T03:34:02.111Z,16.30
2023-03-21T03:36:35.709Z,13.68
2023-03-21T03:39:12.023Z,13.65
2023-03-21T03:42:18.400Z,15.80
2023-03-21T03:44:41.269Z,17.92
2023-03-21T03:47:22.899Z,14.02
2023-03-21T03:50:03.743Z,13.80
2023-03-21T03:52:40.068Z,15.50
2023-03-21T03:55:16.217Z,16.52
2023-03-21T03:57:44.418Z,16.25
2023-03-21T04:00:15.815Z,13.15
2023-03-21T04:02:45.789Z,18.02
2023-03-21T04:05:20.956Z,12.85
2023-03-21T04:07:51.283Z,17.08
2023-03-21T04:10:22.585Z,15.10
2023-03-21T04:12:49.688Z,17.55
2023-03-21T04:15:27.378Z,16.35
2023-03-21T04:18:00.361Z,15.35
2023-03-21T04:20:36.610Z,14.82
2023-03-21T04:23:06.001Z,17.52
2023-03-21T04:25:38.666Z,17.48
2023-03-21T04:28:07.031Z,16.02
2023-03-21T04:30:58.901Z,13.98
2023-03-21T04:33:31.052Z,17.35
2023-03-21T04:35:58.992Z,16.13
2023-03-21T04:38:31.257Z,15.80
2023-03-21T04:41:02.771Z,16.63
2023-03-21T04:43:30.842Z,15.13
2023-03-21T04:45:57.264Z,20.17
2023-03-21T04:48:24.544Z,15.23
2023-03-21T04:50:52.068Z,19.80
2023-03-21T04:53:19.063Z,19.08
2023-03-21T04:55:45.534Z,13.35
2023-03-21T04:58:12.044Z,13.90
2023-03-21T05:00:38.999Z,15.20
2023-03-21T05:03:09.041Z,20.02
2023-03-21T05:05:37.981Z,17.52
2023-03-21T05:08:05.868Z,16.67
2023-03-21T05:10:32.934Z,14.88
2023-03-21T05:12:59.661Z,16.45
2023-03-21T05:15:27.722Z,18.55
2023-03-21T05:17:55.035Z,17.50
2023-03-21T05:20:21.466Z,16.27
2023-03-21T05:22:50.006Z,17.55
2023-03-21T05:25:18.091Z,19.17
2023-03-21T05:28:06.408Z,20.40
2023-03-21T05:30:34.141Z,16.77
2023-03-21T05:33:01.700Z,18.52
2023-03-21T05:35:29.046Z,22.90
2023-03-21T05:37:58.362Z,27.67
2023-03-21T05:40:27.570Z,18.85
2023-03-21T05:42:57.400Z,19.95
2023-03-21T05:45:24.702Z,22.10
2023-03-21T05:47:51.574Z,22.80
2023-03-21T05:50:19.863Z,23.38
2023-03-21T05:52:55.651Z,20.95
2023-03-21T05:55:22.281Z,22.73
2023-03-21T05:57:49.826Z,19.25
2023-03-21T06:00:22.034Z,24.10
2023-03-21T06:03:15.195Z,22.83
2023-03-21T06:05:55.743Z,24.58
2023-03-21T06:08:25.804Z,26.58
2023-03-21T06:10:53.456Z,25.23
2023-03-21T06:13:19.837Z,19.75
2023-03-21T06:15:46.843Z,20.25
2023-03-21T06:18:18.287Z,22.80
2023-03-21T06:21:01.479Z,21.60
2023-03-21T06:23:28.803Z,25.70
2023-03-21T06:25:55.612Z,20.80
2023-03-21T06:28:25.254Z,20.40
2023-03-21T06:30:52.360Z,21.30
2023-03-21T06:33:23.051Z,25.50
2023-03-21T06:35:56.112Z,19.63
2023-03-21T06:40:50.327Z,16.38
2023-03-21T06:43:17.441Z,15.05
2023-03-21T06:45:45.242Z,17.92
2023-03-21T06:48:12.244Z,11.88
2023-03-21T06:50:49.368Z,13.43
2023-03-21T06:53:20.622Z,19.92
2023-03-21T06:56:09.207Z,17.20
2023-03-21T06:58:36.457Z,15.00
2023-03-21T07:01:04.615Z,14.52
2023-03-21T07:03:35.198Z,19.27
2023-03-21T07:06:13.481Z,14.70
2023-03-21T07:08:41.471Z,17.13
2023-03-21T07:11:09.127Z,19.33
2023-03-21T07:13:35.642Z,17.88
2023-03-21T07:16:04.614Z,17.92
2023-03-21T07:18:31.494Z,17.23
2023-03-21T07:20:58.463Z,16.45
2023-03-21T07:23:26.255Z,17.90
2023-03-21T07:25:54.779Z,14.82
2023-03-21T07:28:22.080Z,16.50
2023-03-21T07:30:57.588Z,17.15
2023-03-21T07:33:26.128Z,14.48
2023-03-21T07:35:57.790Z,16.88
2023-03-21T07:38:24.945Z,18.90
2023-03-21T07:40:51.798Z,14.63
2023-03-21T07:45:56.868Z,14.68
2023-03-21T07:48:23.513Z,13.82
2023-03-21T07:50:50.245Z,12.65
2023-03-21T07:53:16.987Z,12.77
2023-03-21T07:55:43.716Z,16.55
2023-03-21T07:58:10.321Z,15.55
2023-03-21T08:00:36.778Z,12.15
2023-03-21T08:03:03.569Z,11.10
2023-03-21T08:05:34.289Z,12.82
2023-03-21T08:08:01.080Z,13.82
2023-03-21T08:10:28.250Z,11.93
2023-03-21T08:12:54.655Z,11.95
2023-03-21T08:15:21.835Z,15.98
2023-03-21T08:17:48.580Z,13.57
2023-03-21T08:20:21.045Z,14.77
2023-03-21T08:22:48.285Z,16.75
2023-03-21T08:25:17.774Z,12.95
2023-03-21T08:27:45.672Z,12.68
2023-03-21T08:30:14.810Z,17.67
2023-03-21T08:32:42.154Z,13.82
2023-03-21T08:35:11.503Z,13.02
2023-03-21T08:37:40.099Z,12.18
2023-03-21T08:40:11.252Z,14.15
2023-03-21T08:42:38.704Z,13.13
2023-03-21T08:45:06.066Z,11.23
2023-03-21T08:47:32.721Z,11.45
2023-03-21T08:49:59.333Z,10.32
2023-03-21T08:52:27.061Z,10.80
2023-03-21T08:54:54.793Z,10.90
2023-03-21T08:57:21.374Z,10.25
2023-03-21T08:59:47.862Z,8.77
2023-03-21T09:02:16.771Z,11.18
2023-03-21T09:04:44.752Z,8.60
2023-03-21T09:07:17.905Z,9.00
2023-03-21T09:09:45.905Z,8.25
2023-03-21T09:12:14.167Z,10.45
2023-03-21T09:14:41.075Z,15.07
2023-03-21T09:17:07.439Z,13.02
2023-03-21T09:19:35.076Z,10.93
2023-03-21T09:22:03.642Z,12.88
2023-03-21T09:24:30.589Z,12.90
2023-03-21T09:26:57.086Z,13.90
2023-03-21T09:29:23.853Z,10.55
2023-03-21T09:31:53.383Z,13.88
2023-03-21T09:34:20.991Z,14.27
2023-03-21T09:36:48.421Z,12.55
2023-03-21T09:39:17.215Z,13.02
2023-03-21T09:42:02.041Z,14.73
2023-03-21T09:44:51.570Z,14.60
2023-03-21T09:47:29.343Z,19.08
2023-03-21T09:50:13.772Z,12.02
2023-03-21T09:52:58.605Z,14.63
2023-03-21T09:55:31.833Z,12.85
2023-03-21T09:58:36.508Z,18.88
2023-03-21T10:01:10.276Z,17.90
2023-03-21T10:03:38.639Z,14.43
2023-03-21T10:06:13.105Z,14.45
2023-03-21T10:08:41.438Z,17.23
2023-03-21T10:11:17.802Z,13.85
2023-03-21T10:13:49.513Z,17.65
2023-03-21T10:16:21.324Z,16.25
2023-03-21T10:18:49.095Z,17.42
2023-03-21T10:21:51.420Z,18.70
2023-03-21T10:24:14.803Z,13.65
2023-03-21T10:26:42.677Z,17.23
2023-03-21T10:29:12.774Z,15.60
2023-03-21T10:31:41.627Z,18.20
2023-03-21T10:34:17.503Z,18.85
2023-03-21T10:36:44.202Z,16.30
2023-03-21T10:39:34.272Z,15.25
2023-03-21T10:42:01.365Z,19.83
2023-03-21T10:44:33.406Z,20.02
2023-03-21T10:47:09.927Z,17.08
2023-03-21T10:49:56.372Z,17.38
2023-03-21T10:52:28.348Z,14.35
2023-03-21T10:55:07.019Z,14.82
2023-03-21T10:57:33.589Z,19.15
2023-03-21T11:00:02.336Z,15.25
2023-03-21T11:02:33.916Z,15.85
2023-03-21T11:05:08.371Z,14.75
2023-03-21T11:07:36.939Z,16.25
2023-03-21T11:10:20.011Z,13.70
2023-03-21T11:12:57.231Z,14.02
2023-03-21T11:15:31.420Z,15.43
2023-03-21T11:17:59.444Z,13.40
2023-03-21T11:20:29.536Z,16.33
2023-03-21T11:22:56.912Z,13.18
2023-03-21T11:25:37.790Z,14.40
2023-03-21T11:28:13.771Z,14.82
2023-03-21T11:30:51.316Z,13.15
2023-03-21T11:33:19.213Z,11.82
2023-03-21T11:36:05.321Z,13.30
2023-03-21T11:38:37.855Z,12.73
2023-03-21T11:41:06.116Z,17.47
2023-03-21T11:43:36.572Z,13.98
2023-03-21T11:46:14.706Z,13.55
2023-03-21T11:48:48.736Z,14.48
2023-03-21T11:51:37.124Z,12.73
2023-03-21T11:54:29.895Z,9.88
2023-03-21T11:57:20.406Z,13.55
2023-03-21T12:00:04.896Z,13.05
2023-03-21T12:02:55.634Z,14.95
2023-03-21T12:05:28.545Z,12.57
2023-03-21T12:08:24.495Z,15.93
2023-03-21T12:11:06.954Z,13.98
2023-03-21T12:14:12.289Z,18.13
2023-03-21T12:17:10.645Z,14.60
2023-03-21T12:19:54.798Z,11.45
2023-03-21T12:22:32.892Z,13.07
2023-03-21T12:25:09.956Z,14.30
2023-03-21T12:27:42.310Z,11.43
2023-03-21T12:30:16.674Z,10.02
2023-03-21T12:32:52.177Z,14.85
2023-03-21T12:35:39.498Z,12.27
2023-03-21T12:38:36.466Z,14.80
2023-03-21T12:41:11.840Z,10.80
2023-03-21T12:44:08.925Z,11.68
2023-03-21T12:46:55.744Z,12.75
2023-03-21T12:49:34.111Z,10.80
2023-03-21T12:52:05.792Z,10.38
2023-03-21T12:54:44.484Z,10.82
2023-03-21T12:57:17.896Z,15.90
2023-03-21T13:02:51.905Z,12.07
2023-03-21T13:05:34.104Z,10.25
2023-03-21T13:08:46.326Z,11.60
2023-03-21T13:11:17.420Z,9.43
2023-03-21T13:14:04.287Z,12.30
2023-03-21T13:16:37.352Z,12.60
2023-03-21T13:19:38.779Z,11.82
2023-03-21T13:22:31.030Z,13.82
2023-03-21T13:25:07.453Z,10.10
2023-03-21T13:27:36.495Z,9.63
2023-03-21T13:30:07.218Z,9.18
2023-03-21T13:32:39.970Z,11.82
2023-03-21T13:35:09.682Z,11.30
2023-03-21T13:37:40.333Z,11.45
2023-03-21T13:40:19.969Z,8.00
2023-03-21T13:42:54.710Z,9.23
2023-03-21T13:45:33.100Z,9.63
2023-03-21T13:48:04.959Z,9.93
2023-03-21T13:50:51.282Z,10.05
2023-03-21T13:53:23.597Z,9.13
2023-03-21T13:56:19.464Z,11.13
2023-03-21T13:58:45.841Z,11.52
2023-03-21T14:01:36.651Z,9.07
2023-03-21T14:04:20.153Z,9.27
2023-03-21T14:07:13.355Z,9.68
2023-03-21T14:09:43.723Z,9.95
2023-03-21T14:12:24.620Z,10.98
2023-03-21T14:15:01.534Z,12.18
2023-03-21T14:17:34.872Z,8.35
2023-03-21T14:20:12.142Z,9.45
2023-03-21T14:22:40.244Z,10.00
2023-03-21T14:25:11.969Z,10.00
2023-03-21T14:27:42.261Z,12.23
2023-03-21T14:30:19.137Z,9.80
2023-03-21T14:32:47.550Z,11.65
2023-03-21T14:35:14.344Z,8.48
2023-03-21T14:37:44.020Z,9.00
2023-03-21T14:40:21.519Z,7.63
2023-03-21T14:42:49.639Z,12.45
2023-03-21T14:45:23.259Z,10.30
2023-03-21T14:47:59.968Z,9.60
2023-03-21T14:50:40.605Z,9.10
2023-03-21T14:53:15.160Z,8.35
2023-03-21T14:55:46.176Z,6.25
2023-03-21T14:58:16.207Z,10.00
2023-03-21T15:00:42.795Z,7.82
2023-03-21T15:03:12.677Z,9.77
2023-03-21T15:05:42.113Z,7.55
2023-03-21T15:08:15.622Z,6.93
2023-03-21T15:11:06.007Z,7.43
2023-03-21T15:13:36.182Z,6.88
2023-03-21T15:16:04.292Z,9.52
2023-03-21T15:18:34.195Z,14.15
2023-03-21T15:21:07.789Z,11.43
2023-03-21T15:23:42.859Z,12.52
2023-03-21T15:26:18.069Z,12.18
2023-03-21T15:28:50.430Z,14.48
2023-03-21T15:31:19.695Z,13.52
2023-03-21T15:33:51.633Z,13.85
2023-03-21T15:36:41.823Z,15.18
2023-03-21T15:39:12.877Z,15.02
2023-03-21T15:41:39.519Z,11.93
2023-03-21T15:44:14.079Z,10.63
2023-03-21T15:46:49.131Z,11.10
2023-03-21T15:49:15.954Z,12.40
2023-03-21T15:51:59.441Z,10.93
2023-03-21T15:54:30.727Z,12.52
2023-03-21T15:57:04.673Z,11.10
2023-03-21T15:59:36.375Z,17.27
2023-03-21T16:02:04.529Z,14.15
2023-03-21T16:04:31.311Z,19.70
2023-03-21T16:06:58.065Z,23.38
2023-03-21T16:09:25.701Z,18.50
2023-03-21T16:11:57.311Z,13.75
2023-03-21T16:14:27.681Z,15.07
2023-03-21T16:16:54.496Z,12.27
2023-03-21T16:19:21.051Z,13.32
2023-03-21T16:21:47.487Z,12.60
2023-03-21T16:24:13.904Z,13.27
2023-03-21T16:26:47.620Z,9.27
2023-03-21T16:29:15.491Z,7.45
2023-03-21T16:31:42.375Z,7.40
2023-03-21T16:34:09.143Z,8.00
2023-03-21T16:36:38.259Z,9.32
2023-03-21T16:39:16.916Z,9.52
2023-03-21T16:41:43.446Z,11.07
2023-03-21T16:44:10.353Z,10.90
2023-03-21T16:46:36.760Z,9.80
2023-03-21T16:49:03.923Z,10.40
2023-03-21T16:51:36.191Z,11.65
2023-03-21T16:54:03.245Z,12.02
2023-03-21T16:56:37.758Z,15.18
2023-03-21T16:59:08.475Z,9.07
2023-03-21T17:01:38.328Z,10.75
2023-03-21T17:04:04.949Z,9.05
2023-03-21T17:06:31.457Z,10.25
2023-03-21T17:08:58.814Z,9.85
2023-03-21T17:11:26.998Z,8.65
2023-03-21T17:13:54.678Z,12.38
2023-03-21T17:16:26.678Z,10.88
2023-03-21T17:18:54.805Z,9.30
2023-03-21T17:21:24.435Z,8.80
2023-03-21T17:23:52.350Z,8.70
2023-03-21T17:26:27.384Z,13.43
2023-03-21T17:28:57.196Z,8.95
2023-03-21T17:31:25.585Z,9.02
2023-03-21T17:33:51.976Z,14.15
2023-03-21T17:36:24.393Z,8.27
2023-03-21T17:38:52.685Z,8.43
2023-03-21T17:41:20.466Z,8.70
2023-03-21T17:43:47.128Z,9.50
2023-03-21T17:46:16.182Z,11.43
2023-03-21T17:48:43.577Z,8.93
2023-03-21T17:51:15.867Z,9.75
2023-03-21T17:53:49.105Z,7.38
2023-03-21T17:56:27.467Z,6.40
2023-03-21T17:58:54.482Z,8.38
2023-03-21T18:01:21.269Z,8.85
2023-03-21T18:03:47.739Z,10.25
2023-03-21T18:06:19.209Z,7.63
2023-03-21T18:08:47.185Z,11.95
2023-03-21T18:11:15.112Z,15.02
2023-03-21T18:13:42.914Z,10.23
2023-03-21T18:16:18.403Z,11.38
2023-03-21T18:18:47.812Z,10.45
2023-03-21T18:21:19.256Z,10.00
2023-03-21T18:23:46.755Z,10.52
2023-03-21T18:26:16.611Z,12.30
2023-03-21T18:28:43.474Z,11.98
2023-03-21T18:31:19.027Z,11.05
2023-03-21T18:33:48.108Z,8.93
2023-03-21T18:36:25.010Z,9.75
2023-03-21T18:38:51.753Z,5.95
2023-03-21T18:41:22.657Z,8.70
2023-03-21T18:44:13.001Z,7.70
2023-03-21T18:46:36.819Z,6.75
2023-03-21T18:49:30.345Z,8.82
2023-03-21T18:51:51.448Z,8.15
2023-03-21T18:54:17.950Z,7.15
2023-03-21T18:57:27.690Z,9.15
2023-03-21T18:59:34.626Z,10.25
2023-03-21T19:02:03.275Z,9.52
2023-03-21T19:04:30.634Z,8.63
2023-03-21T19:06:57.608Z,5.95
2023-03-21T19:09:29.455Z,6.90
2023-03-21T19:11:58.231Z,9.10
2023-03-21T19:14:24.612Z,9.57
2023-03-21T19:19:38.594Z,5.85
2023-03-21T19:22:05.292Z,4.70
2023-03-21T19:24:31.708Z,8.40
2023-03-21T19:26:58.229Z,7.28
2023-03-21T19:29:25.634Z,6.22
2023-03-21T19:31:52.332Z,7.57
2023-03-21T19:34:20.285Z,7.32
2023-03-21T19:36:51.407Z,16.65
2023-03-21T19:39:21.879Z,12.80
2023-03-21T19:41:48.884Z,12.68
2023-03-21T19:44:15.412Z,9.30
2023-03-21T19:46:41.829Z,7.68
2023-03-21T19:49:08.255Z,8.45
2023-03-21T19:51:34.855Z,7.10
2023-03-21T19:54:04.492Z,6.43
2023-03-21T19:56:31.893Z,5.85
2023-03-21T19:58:58.809Z,10.75
2023-03-21T20:01:26.003Z,7.50
2023-03-21T20:03:52.634Z,5.75
2023-03-21T20:06:19.574Z,7.63
2023-03-21T20:11:33.536Z,7.05
2023-03-21T20:14:02.889Z,6.47
2023-03-21T20:16:34.916Z,6.55
2023-03-21T20:19:03.286Z,6.68
2023-03-21T20:21:36.598Z,7.20
2023-03-21T20:24:11.343Z,8.82
2023-03-21T20:26:37.934Z,7.90
2023-03-21T20:29:48.473Z,8.23
2023-03-21T20:31:53.037Z,8.93
2023-03-21T20:34:19.674Z,7.90
2023-03-21T20:36:46.182Z,12.57
2023-03-21T20:39:12.640Z,10.05
2023-03-21T20:41:39.466Z,8.90
2023-03-21T20:44:39.502Z,8.80
2023-03-21T20:46:53.043Z,9.40
2023-03-21T20:49:22.671Z,8.20
2023-03-21T20:52:49.280Z,9.48
2023-03-21T20:54:37.333Z,8.55
2023-03-21T20:57:05.159Z,10.43
2023-03-21T20:59:31.628Z,8.05
2023-03-21T21:01:58.393Z,8.82
2023-03-21T21:04:46.887Z,10.02
2023-03-21T21:07:17.056Z,8.13
2023-03-21T21:09:44.752Z,7.65
2023-03-21T21:12:12.538Z,9.70
2023-03-21T21:14:39.081Z,9.63
2023-03-21T21:17:23.914Z,9.18
2023-03-21T21:19:52.338Z,11.65
2023-03-21T21:22:19.238Z,12.55
2023-03-21T21:24:45.610Z,11.63
2023-03-21T21:27:12.009Z,11.45
2023-03-21T21:29:38.474Z,14.88
2023-03-21T21:32:05.143Z,13.80
2023-03-21T21:34:31.652Z,13.73
2023-03-21T21:36:58.104Z,14.73
2023-03-21T21:39:26.480Z,11.70
2023-03-21T21:41:53.557Z,14.85
2023-03-21T21:44:20.224Z,13.32
2023-03-21T21:46:47.007Z,10.15
2023-03-21T21:49:13.691Z,12.60
2023-03-21T21:51:41.718Z,9.05
2023-03-21T21:54:08.125Z,9.13
2023-03-21T21:56:36.892Z,10.75
2023-03-21T21:59:04.599Z,10.52
2023-03-21T22:01:34.579Z,12.48
2023-03-21T22:04:06.158Z,9.68
2023-03-21T22:06:34.171Z,13.82
2023-03-21T22:09:01.007Z,10.20
2023-03-21T22:11:27.633Z,11.82
2023-03-21T22:13:54.003Z,10.25
2023-03-21T22:16:20.617Z,10.23
2023-03-21T22:18:47.151Z,11.50
2023-03-21T22:21:13.663Z,14.13
2023-03-21T22:23:41.322Z,12.23
2023-03-21T22:26:08.800Z,9.70
2023-03-21T22:28:36.191Z,8.07
2023-03-21T22:31:10.762Z,11.25
2023-03-21T22:33:37.227Z,10.25
2023-03-21T22:36:04.604Z,11.18
2023-03-21T22:38:31.134Z,11.10
2023-03-21T22:40:59.670Z,11.68
2023-03-21T22:43:26.931Z,10.75
2023-03-21T22:45:53.579Z,8.57
2023-03-21T22:48:21.770Z,9.90
2023-03-21T22:50:48.620Z,8.82
2023-03-21T22:53:15.356Z,8.32
2023-03-21T22:55:41.826Z,8.18
2023-03-21T22:58:08.337Z,11.05
2023-03-21T23:00:34.733Z,8.00
2023-03-21T23:03:01.320Z,9.23
2023-03-21T23:05:27.772Z,8.70
2023-03-21T23:07:54.227Z,7.82
2023-03-21T23:10:20.864Z,9.52
2023-03-21T23:12:47.297Z,7.28
2023-03-21T23:15:14.117Z,10.23
2023-03-21T23:17:40.784Z,8.80
2023-03-21T23:20:08.578Z,11.00
2023-03-21T23:22:35.435Z,10.20
2023-03-21T23:25:02.859Z,9.82
2023-03-21T23:27:29.590Z,9.73
2023-03-21T23:29:56.750Z,7.93
2023-03-21T23:32:23.800Z,12.45
2023-03-21T23:34:50.187Z,11.07
2023-03-21T23:37:16.595Z,8.20
2023-03-21T23:39:45.130Z,8.35
2023-03-21T23:42:11.729Z,8.90
2023-03-21T23:44:38.488Z,9.85
2023-03-21T23:47:05.236Z,10.30
2023-03-21T23:49:33.527Z,7.32
2023-03-21T23:52:00.116Z,8.88
2023-03-21T23:54:26.654Z,8.82
2023-03-21T23:56:53.050Z,9.32
2023-03-21T23:59:19.414Z,11.20
